Time;durP1;ratioP1;P1;durP2;ratioP2;P2;SDS_P1;SDS_P2;PMS_P1;PMS_P2;Temp;Humidity;BMP_temperature;BMP_pressure;BME280_temperature;BME280_humidity;BME280_pressure;Samples;Min_cycle;Max_cycle;Signal;HPM_P1;HPM_P2
2021/12/25 00:00:33;;;;;;;7.20;5.88;;;4.50;99.90;;;;;;4972315;28;20034;-85
2021/12/25 00:02:58;;;;;;;10.43;5.82;;;4.50;99.90;;;;;;4999536;28;20057;-85
2021/12/25 00:05:24;;;;;;;9.82;6.90;;;4.40;99.90;;;;;;4988128;28;20026;-85
2021/12/25 00:07:49;;;;;;;8.73;6.30;;;4.30;99.90;;;;;;4984303;28;20528;-85
2021/12/25 00:10:15;;;;;;;10.65;7.38;;;4.40;99.90;;;;;;4966816;28;20023;-86
2021/12/25 00:12:41;;;;;;;11.50;8.52;;;4.40;99.90;;;;;;4986350;28;20045;-84
2021/12/25 00:15:06;;;;;;;13.05;7.30;;;4.40;99.90;;;;;;4986063;28;20031;-85
2021/12/25 00:17:33;;;;;;;11.82;7.82;;;4.30;99.90;;;;;;4981621;28;20030;-85
2021/12/25 00:19:58;;;;;;;10.48;7.47;;;4.30;99.90;;;;;;4964046;28;20037;-85
2021/12/25 00:22:24;;;;;;;10.75;8.02;;;4.30;99.90;;;;;;4977838;28;20417;-85
2021/12/25 00:24:49;;;;;;;10.90;7.88;;;4.30;99.90;;;;;;4956624;28;20027;-85
2021/12/25 00:34:40;;;;;;;14.88;9.73;;;4.20;99.90;;;;;;4986929;28;20041;-85
2021/12/25 00:37:06;;;;;;;12.82;9.55;;;4.20;99.90;;;;;;4959660;28;20034;-85
2021/12/25 00:39:33;;;;;;;17.50;12.05;;;4.30;99.90;;;;;;4973855;28;20050;-85
2021/12/25 00:42:02;;;;;;;17.60;11.73;;;4.20;99.90;;;;;;4997515;28;20042;-85
2021/12/25 00:44:28;;;;;;;17.80;13.25;;;4.20;99.90;;;;;;4970348;28;20077;-85
2021/12/25 00:47:16;;;;;;;19.45;13.00;;;4.20;99.90;;;;;;4969884;28;20473;-85
2021/12/25 00:49:41;;;;;;;18.50;12.90;;;4.20;99.90;;;;;;4967773;28;20133;-84
2021/12/25 00:52:08;;;;;;;19.05;13.60;;;4.20;99.90;;;;;;4979479;28;20122;-85
2021/12/25 00:54:34;;;;;;;15.98;11.80;;;4.20;99.90;;;;;;4979617;28;20490;-85
2021/12/25 00:56:59;;;;;;;18.48;14.02;;;4.20;99.90;;;;;;4955370;28;20037;-85
2021/12/25 00:59:25;;;;;;;20.10;13.93;;;4.10;99.90;;;;;;4986757;28;20057;-85
2021/12/25 01:01:51;;;;;;;17.92;13.98;;;4.10;99.90;;;;;;4985296;28;20038;-85
2021/12/25 01:04:16;;;;;;;18.23;13.20;;;4.00;99.90;;;;;;4969723;28;20045;-85
2021/12/25 01:06:42;;;;;;;13.18;10.25;;;4.00;99.90;;;;;;4994574;28;20394;-85
2021/12/25 01:09:07;;;;;;;17.27;13.25;;;4.00;99.90;;;;;;4949331;28;20399;-85
2021/12/25 01:11:35;;;;;;;17.38;12.43;;;4.00;99.90;;;;;;4972923;28;20054;-85
2021/12/25 01:14:08;;;;;;;17.60;12.65;;;4.00;99.90;;;;;;4969411;28;20085;-85
2021/12/25 01:30:05;;;;;;;18.02;13.43;;;3.80;99.90;;;;;;4984251;28;20064;-85
2021/12/25 01:38:09;;;;;;;17.80;13.35;;;3.70;99.90;;;;;;4982075;28;20050;-84
2021/12/25 01:40:55;;;;;;;18.77;14.55;;;3.70;99.90;;;;;;4962302;28;20039;-84
2021/12/25 01:48:50;;;;;;;18.23;13.18;;;3.60;99.90;;;;;;4993162;28;20087;-84
2021/12/25 01:51:15;;;;;;;19.52;14.98;;;3.60;99.90;;;;;;4991167;28;20030;-84
2021/12/25 01:53:41;;;;;;;19.17;13.27;;;3.60;99.90;;;;;;4998421;28;20031;-85
2021/12/25 01:56:06;;;;;;;17.77;13.23;;;3.50;99.90;;;;;;4968743;28;20050;-84
2021/12/25 01:58:35;;;;;;;17.70;13.10;;;3.50;99.90;;;;;;5000313;28;20029;-84
2021/12/25 02:01:01;;;;;;;19.73;14.98;;;3.50;99.90;;;;;;4965453;28;20038;-84
2021/12/25 02:03:29;;;;;;;19.00;14.50;;;3.40;99.90;;;;;;4990670;28;20030;-84
2021/12/25 02:05:56;;;;;;;18.48;13.65;;;3.40;99.90;;;;;;5006367;28;20037;-84
2021/12/25 02:08:22;;;;;;;17.25;13.45;;;3.50;99.90;;;;;;4974092;28;20381;-85
2021/12/25 02:10:48;;;;;;;20.50;15.38;;;3.40;99.90;;;;;;4975222;28;20050;-84
2021/12/25 02:13:14;;;;;;;19.40;14.52;;;3.30;99.90;;;;;;5002036;28;20060;-84
2021/12/25 02:15:45;;;;;;;19.73;14.85;;;3.30;99.90;;;;;;4990559;28;20494;-84
2021/12/25 02:18:44;;;;;;;19.20;15.10;;;3.30;99.90;;;;;;4970404;28;20066;-84
2021/12/25 02:23:25;;;;;;;21.48;14.73;;;3.20;99.90;;;;;;5013035;28;20027;-84
2021/12/25 02:25:54;;;;;;;21.08;15.02;;;3.20;99.90;;;;;;4973203;28;20058;-84
2021/12/25 02:28:20;;;;;;;18.00;13.90;;;3.10;99.90;;;;;;4964341;28;20041;-84
2021/12/25 02:30:47;;;;;;;21.30;13.88;;;3.10;99.90;;;;;;4956596;28;20410;-84
2021/12/25 02:33:13;;;;;;;19.60;15.57;;;3.10;99.90;;;;;;4967277;28;20029;-84
2021/12/25 02:35:39;;;;;;;18.48;13.82;;;3.10;99.90;;;;;;4971736;28;20027;-84
2021/12/25 02:38:05;;;;;;;16.58;14.55;;;3.10;99.90;;;;;;4965155;28;20077;-84
2021/12/25 02:40:30;;;;;;;16.08;12.90;;;3.00;99.90;;;;;;4993497;28;20026;-84
2021/12/25 02:42:56;;;;;;;17.77;13.65;;;3.00;99.90;;;;;;4971942;28;20035;-84
2021/12/25 02:45:22;;;;;;;18.52;14.32;;;3.00;99.90;;;;;;4992628;28;20030;-83
2021/12/25 02:47:49;;;;;;;15.70;13.55;;;3.00;99.90;;;;;;4987332;28;20401;-84
2021/12/25 02:50:22;;;;;;;19.50;16.90;;;3.00;99.90;;;;;;4969868;28;20041;-84
2021/12/25 02:52:47;;;;;;;18.50;15.48;;;2.90;99.90;;;;;;4975612;28;20498;-85
2021/12/25 02:55:13;;;;;;;19.25;15.30;;;2.80;99.90;;;;;;4964888;28;20030;-84
2021/12/25 02:57:38;;;;;;;19.30;16.10;;;2.80;99.90;;;;;;4965256;28;20121;-84
2021/12/25 03:00:08;;;;;;;21.65;15.60;;;2.80;99.90;;;;;;4985194;28;20034;-84
2021/12/25 03:02:33;;;;;;;19.70;13.90;;;2.80;99.90;;;;;;4983370;28;20034;-84
2021/12/25 03:04:59;;;;;;;21.92;15.60;;;2.80;99.90;;;;;;4988738;28;20467;-84
2021/12/25 03:07:24;;;;;;;20.58;14.88;;;2.70;99.90;;;;;;4981547;28;20038;-84
2021/12/25 03:09:50;;;;;;;20.13;14.77;;;2.70;99.90;;;;;;4979009;28;20398;-84
2021/12/25 03:12:23;;;;;;;19.27;14.50;;;2.70;99.90;;;;;;4990377;28;20572;-84
2021/12/25 03:17:26;;;;;;;19.33;14.00;;;2.70;99.90;;;;;;4989853;28;20087;-84
2021/12/25 03:19:54;;;;;;;22.95;16.33;;;2.70;99.90;;;;;;4987231;28;20592;-84
2021/12/25 03:22:20;;;;;;;19.35;14.95;;;2.70;99.90;;;;;;4985325;28;20482;-83
2021/12/25 03:24:45;;;;;;;21.48;15.63;;;2.70;99.90;;;;;;5001843;28;20029;-85
2021/12/25 03:27:11;;;;;;;20.77;14.68;;;2.60;99.90;;;;;;4985524;28;20048;-84
2021/12/25 03:29:40;;;;;;;17.33;13.00;;;2.60;99.90;;;;;;4990987;28;20157;-84
2021/12/25 03:32:06;;;;;;;20.58;15.43;;;2.60;99.90;;;;;;4961434;28;20057;-83
2021/12/25 03:34:31;;;;;;;18.83;16.38;;;2.50;99.90;;;;;;4955395;28;20066;-83
2021/12/25 03:36:57;;;;;;;23.17;15.82;;;2.40;99.90;;;;;;4983079;28;20050;-83
2021/12/25 03:39:22;;;;;;;19.25;16.38;;;2.50;99.90;;;;;;4981596;28;20493;-83
2021/12/25 03:41:48;;;;;;;22.30;15.73;;;2.40;99.90;;;;;;4986243;28;20117;-83
2021/12/25 03:44:13;;;;;;;20.83;14.70;;;2.40;99.90;;;;;;4979125;28;20592;-83
2021/12/25 03:46:40;;;;;;;19.27;13.90;;;2.50;99.90;;;;;;4988032;28;20045;-83
2021/12/25 03:49:13;;;;;;;21.27;17.00;;;2.50;99.90;;;;;;4987791;28;20092;-83
2021/12/25 04:00:05;;;;;;;21.67;14.63;;;2.40;99.90;;;;;;5000082;28;20041;-84
2021/12/25 04:02:35;;;;;;;20.33;15.00;;;2.40;99.90;;;;;;4977200;28;20066;-83
2021/12/25 04:05:03;;;;;;;18.05;12.55;;;2.40;99.90;;;;;;4976150;28;20030;-83
2021/12/25 04:10:22;;;;;;;19.42;14.52;;;2.30;99.90;;;;;;4982947;28;20947;-83
2021/12/25 04:12:48;;;;;;;18.88;14.95;;;2.40;99.90;;;;;;4986424;28;20054;-84
2021/12/25 04:15:13;;;;;;;20.10;15.60;;;2.30;99.90;;;;;;4960575;28;20061;-84
2021/12/25 04:17:39;;;;;;;18.33;13.45;;;2.40;99.90;;;;;;4969146;28;20065;-83
2021/12/25 04:20:05;;;;;;;18.85;14.35;;;2.40;99.90;;;;;;4997512;28;20034;-83
2021/12/25 04:22:41;;;;;;;20.73;15.63;;;2.30;99.90;;;;;;4968625;28;20036;-83
2021/12/25 04:25:07;;;;;;;18.58;14.50;;;2.40;99.90;;;;;;4986661;28;20113;-83
2021/12/25 04:27:33;;;;;;;20.50;13.48;;;2.30;99.90;;;;;;4983971;28;20159;-83
2021/12/25 04:30:04;;;;;;;20.27;15.30;;;2.20;99.90;;;;;;4988701;28;20069;-84
2021/12/25 05:04:17;;;;;;;16.83;13.07;;;2.00;99.90;;;;;;5012894;28;20080;-83
2021/12/25 05:06:43;;;;;;;15.05;12.70;;;2.00;99.90;;;;;;4970543;28;20038;-83
2021/12/25 05:09:08;;;;;;;16.98;12.35;;;1.90;99.90;;;;;;4983097;28;20499;-84
2021/12/25 05:11:34;;;;;;;17.13;12.35;;;1.90;99.90;;;;;;5002832;28;20513;-83
2021/12/25 05:13:59;;;;;;;16.35;11.10;;;1.90;99.90;;;;;;5002945;28;20061;-83
2021/12/25 05:16:26;;;;;;;16.00;11.15;;;1.90;99.90;;;;;;4990367;28;20036;-83
2021/12/25 05:18:52;;;;;;;16.17;12.43;;;1.90;99.90;;;;;;4978201;28;20048;-83
2021/12/25 05:21:18;;;;;;;14.65;11.70;;;1.90;99.90;;;;;;4963070;28;20037;-83
2021/12/25 05:23:44;;;;;;;16.67;13.85;;;1.80;99.90;;;;;;5000041;28;20401;-83
2021/12/25 05:26:10;;;;;;;18.25;12.35;;;1.80;99.90;;;;;;4983389;28;20030;-83
2021/12/25 05:28:40;;;;;;;16.27;13.07;;;1.70;99.90;;;;;;4991100;28;20133;-83
2021/12/25 05:31:07;;;;;;;17.10;13.05;;;1.60;99.90;;;;;;4974797;28;20077;-84
2021/12/25 05:33:33;;;;;;;17.75;12.02;;;1.60;99.90;;;;;;4969551;28;20046;-83
2021/12/25 05:35:58;;;;;;;15.43;12.20;;;1.60;99.90;;;;;;4989655;28;20027;-83
2021/12/25 05:38:24;;;;;;;18.05;13.25;;;1.50;99.90;;;;;;4971901;28;20033;-84
2021/12/25 05:40:50;;;;;;;20.23;12.63;;;1.50;99.90;;;;;;4992121;28;20026;-84
2021/12/25 05:43:16;;;;;;;17.17;12.95;;;1.50;99.90;;;;;;4982949;28;20394;-84
2021/12/25 05:45:41;;;;;;;15.27;12.50;;;1.50;99.90;;;;;;4976595;28;20026;-84
2021/12/25 05:48:07;;;;;;;16.02;12.52;;;1.40;99.90;;;;;;4966910;28;20039;-84
2021/12/25 05:50:33;;;;;;;16.20;12.27;;;1.30;99.90;;;;;;4980619;28;20038;-83
2021/12/25 05:52:58;;;;;;;17.38;13.00;;;1.30;99.90;;;;;;4991855;28;20027;-83
2021/12/25 05:55:24;;;;;;;20.73;13.15;;;1.40;99.90;;;;;;4972134;28;20018;-84
2021/12/25 05:57:50;;;;;;;17.88;11.13;;;1.30;99.90;;;;;;4968129;28;20034;-83
2021/12/25 06:00:16;;;;;;;15.35;12.27;;;1.20;99.90;;;;;;4966908;28;20026;-83
2021/12/25 06:02:42;;;;;;;16.08;13.63;;;1.30;99.90;;;;;;4959095;28;20038;-84
2021/12/25 06:05:08;;;;;;;16.15;12.82;;;1.20;99.90;;;;;;4996291;28;20031;-83
2021/12/25 06:07:33;;;;;;;16.70;12.15;;;1.20;99.90;;;;;;4984337;28;20123;-83
2021/12/25 06:09:59;;;;;;;15.60;11.90;;;1.20;99.90;;;;;;4983266;28;20038;-83
2021/12/25 06:12:25;;;;;;;16.85;12.30;;;1.20;99.90;;;;;;4998660;28;20035;-84
2021/12/25 06:14:53;;;;;;;14.88;11.60;;;1.20;99.90;;;;;;4986914;28;20042;-84
2021/12/25 06:17:18;;;;;;;17.52;11.13;;;1.20;99.90;;;;;;4996393;28;20068;-84
2021/12/25 06:19:44;;;;;;;17.17;12.20;;;1.10;99.90;;;;;;4988070;28;20062;-84
2021/12/25 06:22:09;;;;;;;15.35;11.65;;;1.10;99.90;;;;;;4973112;28;20113;-84
2021/12/25 06:24:35;;;;;;;16.67;11.15;;;1.00;99.90;;;;;;4984320;28;20042;-84
2021/12/25 06:27:01;;;;;;;17.63;11.18;;;0.90;99.90;;;;;;4985270;28;20034;-83
2021/12/25 06:29:26;;;;;;;15.23;10.07;;;1.00;99.90;;;;;;4983314;28;20045;-84
2021/12/25 06:31:52;;;;;;;18.80;11.43;;;0.90;99.90;;;;;;4989588;28;20060;-84
2021/12/25 06:34:24;;;;;;;15.82;12.50;;;0.90;99.90;;;;;;4988999;28;20727;-84
2021/12/25 06:36:50;;;;;;;15.82;11.57;;;0.80;99.90;;;;;;4983837;28;20124;-84
2021/12/25 06:39:16;;;;;;;16.17;12.90;;;0.80;99.90;;;;;;4970140;28;20506;-83
2021/12/25 06:41:42;;;;;;;17.05;12.10;;;0.80;99.90;;;;;;4985224;28;20068;-83
2021/12/25 06:44:08;;;;;;;15.63;11.82;;;0.80;99.90;;;;;;4978305;28;20087;-83
2021/12/25 06:46:33;;;;;;;17.08;11.88;;;0.80;99.90;;;;;;4962785;28;20429;-83
2021/12/25 06:48:59;;;;;;;20.13;13.32;;;0.80;99.90;;;;;;4992447;28;20042;-84
2021/12/25 06:51:25;;;;;;;17.35;13.70;;;0.70;99.90;;;;;;4983456;28;20088;-84
2021/12/25 06:53:53;;;;;;;19.38;14.18;;;0.70;99.90;;;;;;4966932;28;20037;-84
2021/12/25 06:56:19;;;;;;;18.20;12.43;;;0.70;99.90;;;;;;4970707;28;20035;-84
2021/12/25 06:58:47;;;;;;;18.60;12.07;;;0.70;99.90;;;;;;4991942;28;20042;-85
2021/12/25 07:01:13;;;;;;;18.92;15.00;;;0.70;99.90;;;;;;5001978;28;20113;-84
2021/12/25 07:03:38;;;;;;;19.30;13.48;;;0.70;99.90;;;;;;4985795;28;20117;-85
2021/12/25 07:06:04;;;;;;;20.35;14.55;;;0.70;99.90;;;;;;4988271;28;20080;-84
2021/12/25 07:08:29;;;;;;;19.10;12.80;;;0.70;99.90;;;;;;4965504;28;20561;-85
2021/12/25 07:10:55;;;;;;;16.98;15.18;;;0.70;99.90;;;;;;4959393;28;20030;-85
2021/12/25 07:13:21;;;;;;;19.40;13.70;;;0.70;99.90;;;;;;4968357;28;20045;-85
2021/12/25 07:15:47;;;;;;;16.92;12.27;;;0.70;99.90;;;;;;5004099;28;20046;-85
2021/12/25 07:18:12;;;;;;;16.60;12.20;;;0.70;99.90;;;;;;4979228;28;20041;-85
2021/12/25 07:20:38;;;;;;;18.45;13.48;;;0.70;99.90;;;;;;4990081;28;20034;-84
2021/12/25 07:23:09;;;;;;;18.30;13.80;;;0.70;99.90;;;;;;4974754;28;20458;-84
2021/12/25 07:25:35;;;;;;;17.90;14.18;;;0.60;99.90;;;;;;4949610;28;20049;-84
2021/12/25 07:28:01;;;;;;;17.58;14.15;;;0.60;99.90;;;;;;4988500;28;20479;-84
2021/12/25 07:30:29;;;;;;;19.25;12.57;;;0.60;99.90;;;;;;5002636;28;20042;-85
2021/12/25 07:32:54;;;;;;;22.08;15.60;;;0.60;99.90;;;;;;4968219;28;20402;-84
2021/12/25 07:35:20;;;;;;;18.33;13.68;;;0.60;99.90;;;;;;4980185;28;20070;-84
2021/12/25 07:37:45;;;;;;;19.55;14.30;;;0.60;99.90;;;;;;4986878;28;20601;-84
2021/12/25 07:40:12;;;;;;;20.08;13.85;;;0.60;99.90;;;;;;4978534;28;20045;-85
2021/12/25 07:42:43;;;;;;;19.38;16.33;;;0.60;99.90;;;;;;4965158;28;20093;-84
2021/12/25 07:45:24;;;;;;;19.25;13.85;;;0.60;99.90;;;;;;4948908;28;20031;-84
2021/12/25 07:47:58;;;;;;;22.98;15.20;;;0.60;99.90;;;;;;4915839;28;20094;-83
2021/12/25 07:50:24;;;;;;;15.82;10.63;;;0.60;99.90;;;;;;4962177;28;20052;-84
2021/12/25 07:52:49;;;;;;;17.58;11.90;;;0.60;99.90;;;;;;4975264;28;20063;-84
2021/12/25 07:55:17;;;;;;;19.95;14.70;;;0.60;99.90;;;;;;4983907;28;20446;-84
2021/12/25 07:57:42;;;;;;;19.92;14.88;;;0.60;99.90;;;;;;4999699;28;20034;-84
2021/12/25 08:00:09;;;;;;;22.35;17.90;;;0.60;99.90;;;;;;4982838;28;20081;-84
2021/12/25 08:02:35;;;;;;;21.52;15.45;;;0.50;99.90;;;;;;4980748;28;20042;-84
2021/12/25 08:05:00;;;;;;;20.88;14.52;;;0.50;99.90;;;;;;4994363;28;20376;-84
2021/12/25 08:07:27;;;;;;;18.75;14.23;;;0.50;99.90;;;;;;4981826;28;20516;-83
2021/12/25 08:09:57;;;;;;;19.25;14.05;;;0.50;99.90;;;;;;4988991;28;20037;-84
2021/12/25 08:12:22;;;;;;;21.80;16.58;;;0.50;99.90;;;;;;4978807;28;20026;-84
2021/12/25 08:14:57;;;;;;;24.35;15.43;;;0.50;99.90;;;;;;4966797;28;20046;-84
2021/12/25 08:17:23;;;;;;;19.27;13.48;;;0.50;99.90;;;;;;4973344;28;20034;-84
2021/12/25 08:19:48;;;;;;;20.83;15.13;;;0.50;99.90;;;;;;4974730;28;20540;-84
2021/12/25 08:22:14;;;;;;;19.33;13.27;;;0.50;99.90;;;;;;4978941;28;20042;-84
2021/12/25 08:24:39;;;;;;;20.60;15.48;;;0.50;99.90;;;;;;4988165;28;20390;-83
2021/12/25 08:27:06;;;;;;;21.00;14.80;;;0.50;99.90;;;;;;4983760;28;20410;-84
2021/12/25 08:29:36;;;;;;;20.33;14.10;;;0.50;99.90;;;;;;4987861;28;20442;-83
2021/12/25 08:32:03;;;;;;;22.20;13.45;;;0.50;99.90;;;;;;4947292;28;20088;-83
2021/12/25 08:34:28;;;;;;;21.08;15.00;;;0.50;99.90;;;;;;4984646;28;20041;-84
2021/12/25 08:36:54;;;;;;;16.67;11.38;;;0.50;99.90;;;;;;4974416;28;21400;-84
2021/12/25 08:39:19;;;;;;;20.65;14.15;;;0.60;99.90;;;;;;4981679;28;20089;-83
2021/12/25 08:41:46;;;;;;;18.88;12.88;;;0.60;99.90;;;;;;4978503;28;20096;-84
2021/12/25 08:46:59;;;;;;;21.83;14.63;;;0.50;99.90;;;;;;4978888;28;20497;-83
2021/12/25 08:49:26;;;;;;;21.23;13.68;;;0.50;99.90;;;;;;4958448;28;20038;-83
2021/12/25 08:51:52;;;;;;;16.75;11.88;;;0.50;99.90;;;;;;4984906;28;20035;-83
2021/12/25 08:54:17;;;;;;;16.88;12.65;;;0.50;99.90;;;;;;4976091;28;20030;-84
2021/12/25 08:56:43;;;;;;;17.92;12.50;;;0.50;99.90;;;;;;4971204;28;20030;-83
2021/12/25 08:59:09;;;;;;;19.25;11.45;;;0.50;99.90;;;;;;4993174;28;20053;-84
2021/12/25 09:01:34;;;;;;;15.18;10.73;;;0.50;99.90;;;;;;4991586;28;20524;-84
2021/12/25 09:04:00;;;;;;;15.70;11.48;;;0.50;99.90;;;;;;4986786;28;20158;-83
2021/12/25 09:06:26;;;;;;;13.32;10.05;;;0.50;99.90;;;;;;4974336;28;20038;-84
2021/12/25 09:08:52;;;;;;;14.27;10.13;;;0.50;99.90;;;;;;4967043;28;20034;-84
2021/12/25 09:11:18;;;;;;;13.23;10.13;;;0.50;99.90;;;;;;4987318;28;20089;-84
2021/12/25 09:13:43;;;;;;;10.93;8.77;;;0.40;99.90;;;;;;4965296;28;20046;-84
2021/12/25 09:16:09;;;;;;;15.20;8.73;;;0.40;99.90;;;;;;4961030;28;20026;-83
2021/12/25 09:18:34;;;;;;;11.57;9.38;;;0.50;99.90;;;;;;4981154;28;20035;-84
2021/12/25 09:21:00;;;;;;;14.40;9.38;;;0.40;99.90;;;;;;4967208;28;20022;-84
2021/12/25 09:23:25;;;;;;;11.15;8.88;;;0.40;99.90;;;;;;4979608;28;20046;-84
2021/12/25 09:25:51;;;;;;;9.23;6.65;;;0.40;99.90;;;;;;4982610;28;20039;-84
2021/12/25 09:28:18;;;;;;;9.23;7.93;;;0.40;99.90;;;;;;4988314;28;20022;-85
2021/12/25 09:30:44;;;;;;;9.43;7.20;;;0.40;99.90;;;;;;4980511;28;20096;-85
2021/12/25 09:33:10;;;;;;;11.98;7.75;;;0.40;99.90;;;;;;4977808;28;20030;-84
2021/12/25 09:35:35;;;;;;;9.27;7.00;;;0.40;99.90;;;;;;4991109;28;20356;-85
2021/12/25 09:38:01;;;;;;;8.93;6.53;;;0.40;99.90;;;;;;4960996;28;20030;-84
2021/12/25 09:40:26;;;;;;;8.65;6.70;;;0.40;99.90;;;;;;4985576;28;20042;-84
2021/12/25 09:42:52;;;;;;;8.18;6.32;;;0.40;99.90;;;;;;4989055;28;20038;-86
2021/12/25 09:45:18;;;;;;;8.10;6.75;;;0.40;99.90;;;;;;4956875;28;20035;-85
2021/12/25 09:47:44;;;;;;;7.55;5.07;;;0.40;99.90;;;;;;4983768;28;20053;-85
2021/12/25 09:50:10;;;;;;;8.65;6.40;;;0.40;99.90;;;;;;4966441;28;21032;-84
2021/12/25 09:52:36;;;;;;;6.97;5.57;;;0.40;99.90;;;;;;4960316;28;20052;-84
2021/12/25 09:55:01;;;;;;;8.85;6.22;;;0.40;99.90;;;;;;5001272;28;20046;-84
2021/12/25 09:57:27;;;;;;;7.95;6.10;;;0.30;99.90;;;;;;5000116;28;20037;-84
2021/12/25 09:59:53;;;;;;;7.55;5.10;;;0.30;99.90;;;;;;4999051;28;20045;-84
2021/12/25 10:02:18;;;;;;;5.90;5.18;;;0.30;99.90;;;;;;4968082;28;20491;-84
2021/12/25 10:04:48;;;;;;;7.65;4.90;;;0.30;99.90;;;;;;4982857;28;20490;-84
2021/12/25 10:07:15;;;;;;;6.10;4.15;;;0.40;99.90;;;;;;4981262;28;20037;-84
2021/12/25 10:09:41;;;;;;;6.13;4.38;;;0.40;99.90;;;;;;5001713;28;20562;-84
2021/12/25 10:12:09;;;;;;;5.50;4.60;;;0.40;99.90;;;;;;4990856;28;20030;-84
2021/12/25 10:14:36;;;;;;;8.07;4.45;;;0.40;99.90;;;;;;4968077;28;20067;-84
2021/12/25 10:17:22;;;;;;;5.40;4.28;;;0.30;99.90;;;;;;4991681;28;20077;-83
2021/12/25 10:20:04;;;;;;;6.93;4.45;;;0.40;99.90;;;;;;4985712;28;20125;-83
2021/12/25 10:22:29;;;;;;;5.32;3.67;;;0.30;99.90;;;;;;4979622;28;20042;-83
2021/12/25 10:25:11;;;;;;;5.65;3.90;;;0.30;99.90;;;;;;4985121;28;20037;-83
2021/12/25 10:27:46;;;;;;;5.82;3.83;;;0.40;99.90;;;;;;4957779;28;20039;-83
2021/12/25 10:30:11;;;;;;;6.07;3.97;;;0.40;99.90;;;;;;4970068;28;20368;-83
2021/12/25 10:32:38;;;;;;;8.38;4.50;;;0.40;99.90;;;;;;4967551;28;20037;-83
2021/12/25 10:35:12;;;;;;;5.07;4.03;;;0.40;99.90;;;;;;4980049;28;20046;-83
2021/12/25 10:37:39;;;;;;;5.50;3.85;;;0.40;99.90;;;;;;4966325;28;20043;-84
2021/12/25 10:40:36;;;;;;;4.68;3.50;;;0.40;99.90;;;;;;4973487;28;20041;-84
2021/12/25 10:43:02;;;;;;;5.35;3.58;;;0.40;99.90;;;;;;4983608;28;20041;-84
2021/12/25 10:45:29;;;;;;;3.42;2.97;;;0.40;99.90;;;;;;5012692;28;20030;-84
2021/12/25 10:48:08;;;;;;;7.63;3.88;;;0.50;99.90;;;;;;4995071;28;20033;-84
2021/12/25 10:50:36;;;;;;;5.80;3.67;;;0.40;99.90;;;;;;4994787;28;20521;-84
2021/12/25 10:53:05;;;;;;;3.88;2.85;;;0.50;99.90;;;;;;4967269;28;20057;-84
2021/12/25 10:55:31;;;;;;;8.30;3.47;;;0.50;99.90;;;;;;4984443;28;20046;-84
2021/12/25 10:57:57;;;;;;;7.07;3.85;;;0.60;99.90;;;;;;4976832;28;20166;-84
2021/12/25 11:00:28;;;;;;;5.03;3.58;;;0.60;99.90;;;;;;4960657;28;20034;-84
2021/12/25 11:03:02;;;;;;;3.58;3.00;;;0.60;99.90;;;;;;4967217;28;20137;-84
2021/12/25 11:05:58;;;;;;;6.32;3.67;;;0.70;99.90;;;;;;4961453;28;20046;-84
2021/12/25 11:08:24;;;;;;;3.95;3.15;;;0.70;99.90;;;;;;4989601;28;20038;-84
2021/12/25 11:10:59;;;;;;;5.80;2.97;;;0.70;99.90;;;;;;4998655;28;20494;-84
2021/12/25 11:13:33;;;;;;;5.60;3.22;;;0.70;99.90;;;;;;4991029;28;20027;-84
2021/12/25 11:16:05;;;;;;;5.85;3.42;;;0.80;99.90;;;;;;4967599;28;20066;-84
2021/12/25 11:18:32;;;;;;;4.45;3.20;;;0.80;99.90;;;;;;4954765;28;20054;-85
2021/12/25 11:20:59;;;;;;;3.97;3.03;;;0.80;99.90;;;;;;4975205;28;20022;-84
2021/12/25 11:23:25;;;;;;;5.47;3.30;;;0.80;99.90;;;;;;4965326;28;20026;-84
2021/12/25 11:25:51;;;;;;;4.85;2.92;;;0.90;99.90;;;;;;4983127;28;20037;-84
2021/12/25 11:28:18;;;;;;;3.67;2.80;;;0.90;99.90;;;;;;4965223;28;20034;-84
2021/12/25 11:30:46;;;;;;;3.60;3.30;;;0.90;99.90;;;;;;4981916;28;20036;-84
2021/12/25 11:33:12;;;;;;;4.18;2.65;;;0.90;99.90;;;;;;4989760;28;20112;-84
2021/12/25 11:35:41;;;;;;;4.93;3.47;;;0.90;99.90;;;;;;4988340;28;20103;-84
2021/12/25 11:38:08;;;;;;;3.72;2.75;;;0.90;99.90;;;;;;4979024;28;20129;-84
2021/12/25 11:40:36;;;;;;;5.60;2.85;;;1.00;99.90;;;;;;4987476;28;20034;-84
2021/12/25 11:43:04;;;;;;;3.78;2.70;;;0.90;99.90;;;;;;4968457;28;20033;-84
2021/12/25 11:45:36;;;;;;;4.65;3.22;;;0.90;99.90;;;;;;5006819;28;20071;-84
2021/12/25 11:48:18;;;;;;;3.80;2.63;;;0.80;99.90;;;;;;4996547;28;20084;-84
2021/12/25 11:50:46;;;;;;;4.05;2.50;;;0.90;99.90;;;;;;4972175;28;20043;-84
2021/12/25 11:53:22;;;;;;;4.70;2.83;;;0.90;99.90;;;;;;4979405;28;20029;-84
2021/12/25 11:56:18;;;;;;;;;;;0.90;99.90;;;;;;5000607;28;20041;-84
2021/12/25 11:58:49;;;;;;;3.33;2.50;;;0.90;99.90;;;;;;4991879;28;19918;-84
2021/12/25 12:01:31;;;;;;;5.03;2.33;;;0.90;99.90;;;;;;4973617;28;20091;-84
2021/12/25 12:04:02;;;;;;;5.00;3.53;;;0.90;99.90;;;;;;4994030;28;20046;-84
2021/12/25 12:06:56;;;;;;;4.68;2.58;;;0.90;99.90;;;;;;4984273;28;20493;-84
2021/12/25 12:09:25;;;;;;;3.95;3.00;;;0.90;99.90;;;;;;4992435;28;20542;-84
2021/12/25 12:11:51;;;;;;;6.35;3.10;;;1.00;99.90;;;;;;4982042;28;20650;-84
2021/12/25 12:14:25;;;;;;;8.52;3.45;;;1.00;99.90;;;;;;4988680;28;20049;-84
2021/12/25 12:16:54;;;;;;;5.00;2.90;;;1.00;99.90;;;;;;4971816;28;20387;-84
2021/12/25 12:19:33;;;;;;;4.40;2.78;;;0.90;99.90;;;;;;4990383;28;20049;-84
2021/12/25 12:21:59;;;;;;;4.18;2.25;;;0.90;99.90;;;;;;5005807;28;20158;-84
2021/12/25 12:24:43;;;;;;;3.70;2.60;;;0.80;99.90;;;;;;4981144;28;20596;-84
2021/12/25 12:27:09;;;;;;;3.38;2.40;;;0.90;99.90;;;;;;4986075;28;20504;-84
2021/12/25 12:29:49;;;;;;;2.25;1.75;;;0.90;99.90;;;;;;4964302;28;20043;-84
2021/12/25 12:32:20;;;;;;;3.72;2.22;;;0.80;99.90;;;;;;5005663;28;20054;-84
2021/12/25 12:34:53;;;;;;;2.75;2.08;;;0.80;99.90;;;;;;4989186;28;20037;-84
2021/12/25 12:37:24;;;;;;;2.80;2.20;;;0.80;99.90;;;;;;4979547;28;20046;-84
2021/12/25 12:39:58;;;;;;;5.28;2.13;;;0.70;99.90;;;;;;4991426;28;20027;-83
2021/12/25 12:42:42;;;;;;;3.55;2.10;;;0.70;99.90;;;;;;5008959;28;20503;-84
2021/12/25 12:45:22;;;;;;;3.83;2.05;;;0.70;99.90;;;;;;4979309;28;20049;-84
2021/12/25 12:48:07;;;;;;;3.88;2.80;;;0.60;99.90;;;;;;4969940;28;20038;-84
2021/12/25 12:50:32;;;;;;;3.63;1.75;;;0.70;99.90;;;;;;4990895;28;20379;-84
2021/12/25 12:52:59;;;;;;;5.32;2.55;;;0.70;99.90;;;;;;4985187;28;20085;-84
2021/12/25 12:55:26;;;;;;;3.97;1.92;;;0.60;99.90;;;;;;4975589;28;20042;-84
2021/12/25 12:58:10;;;;;;;3.58;1.90;;;0.60;99.90;;;;;;4975344;28;20034;-84
2021/12/25 13:00:36;;;;;;;4.32;2.10;;;0.60;99.90;;;;;;4981470;28;20038;-84
2021/12/25 13:03:01;;;;;;;3.17;2.45;;;0.60;99.90;;;;;;4971764;28;20461;-84
2021/12/25 13:05:33;;;;;;;2.47;1.83;;;0.60;99.90;;;;;;4993672;28;20125;-84
2021/12/25 13:08:01;;;;;;;2.28;1.75;;;0.60;99.90;;;;;;4984124;28;20475;-84
2021/12/25 13:10:43;;;;;;;2.13;1.80;;;0.60;99.90;;;;;;5002725;28;20429;-84
2021/12/25 13:13:17;;;;;;;1.42;1.20;;;0.60;99.90;;;;;;4984457;28;20495;-84
2021/12/25 13:15:44;;;;;;;3.85;1.75;;;0.60;99.90;;;;;;4968192;28;20026;-84
2021/12/25 13:18:10;;;;;;;4.25;1.63;;;0.60;99.90;;;;;;5002910;28;20612;-84
2021/12/25 13:20:49;;;;;;;2.22;1.55;;;0.60;99.90;;;;;;5003947;28;20041;-84
2021/12/25 13:23:26;;;;;;;1.90;1.45;;;0.70;99.90;;;;;;5005163;28;20073;-84
2021/12/25 13:25:57;;;;;;;3.28;1.73;;;0.70;99.90;;;;;;4990909;28;20036;-84
2021/12/25 13:28:23;;;;;;;2.30;1.58;;;0.80;99.90;;;;;;4987850;28;20042;-84
2021/12/25 13:30:52;;;;;;;3.63;1.70;;;0.80;99.90;;;;;;4990040;28;20342;-84
2021/12/25 13:33:20;;;;;;;3.17;1.67;;;0.80;99.90;;;;;;4989956;28;20034;-84
2021/12/25 13:35:46;;;;;;;4.38;1.95;;;0.90;99.90;;;;;;4996933;28;20034;-84
2021/12/25 13:38:12;;;;;;;3.35;2.15;;;0.90;99.90;;;;;;4993143;28;20092;-84
2021/12/25 13:40:38;;;;;;;2.92;1.65;;;1.00;99.90;;;;;;4995866;28;20048;-84
2021/12/25 13:43:12;;;;;;;2.13;1.60;;;1.00;99.90;;;;;;4987764;28;20364;-84
2021/12/25 13:45:38;;;;;;;1.77;1.35;;;0.90;99.90;;;;;;4967036;28;20041;-84
2021/12/25 13:48:06;;;;;;;2.55;1.38;;;0.90;99.90;;;;;;5001022;28;20402;-84
2021/12/25 13:50:32;;;;;;;2.25;1.67;;;0.90;99.90;;;;;;4976922;28;20089;-84
2021/12/25 13:53:01;;;;;;;1.80;1.38;;;0.80;99.90;;;;;;4975814;28;20529;-83
2021/12/25 13:55:30;;;;;;;4.20;1.60;;;0.80;99.90;;;;;;4983442;28;20402;-84
2021/12/25 13:58:08;;;;;;;1.70;1.30;;;0.80;99.90;;;;;;4980025;28;20044;-84
2021/12/25 14:00:38;;;;;;;1.55;1.15;;;0.80;99.90;;;;;;4987591;28;20038;-84
2021/12/25 14:03:09;;;;;;;2.00;1.33;;;0.80;99.90;;;;;;4973614;28;20037;-84
2021/12/25 14:05:37;;;;;;;1.85;1.20;;;0.70;99.90;;;;;;5018758;28;20034;-84
2021/12/25 14:08:03;;;;;;;2.65;1.10;;;0.60;99.90;;;;;;4975755;28;20177;-84
2021/12/25 14:10:30;;;;;;;1.17;1.08;;;0.60;99.90;;;;;;4981715;28;20546;-83
2021/12/25 14:12:58;;;;;;;3.08;1.30;;;0.50;99.90;;;;;;4998254;28;20026;-84